Time;durP1;ratioP1;P1;durP2;ratioP2;P2;SDS_P1;SDS_P2;PMS_P1;PMS_P2;Temp;Humidity;BMP_temperature;BMP_pressure;BME280_temperature;BME280_humidity;BME280_pressure;Samples;Min_cycle;Max_cycle;Signal;HPM_P1;HPM_P2
2023/09/13 00:05:43;;;;;;;1.10;0.80;;;;;;;;;;21031110;28;20647;-71
2023/09/13 00:15:44;;;;;;;1.63;0.70;;;25.00;99.90;;;;;;21019540;28;20306;-71
2023/09/13 00:25:46;;;;;;;1.02;0.60;;;;;;;;;;20989714;28;20280;-71
2023/09/13 00:35:48;;;;;;;1.40;0.70;;;;;;;;;;21004592;28;20224;-71
2023/09/13 00:45:50;;;;;;;1.23;0.75;;;24.70;99.90;;;;;;21033923;28;20732;-71
2023/09/13 00:55:54;;;;;;;0.93;0.75;;;;;;;;;;21045120;28;20227;-71
2023/09/13 01:05:56;;;;;;;1.42;0.70;;;;;;;;;;21061463;28;20227;-71
2023/09/13 01:16:32;;;;;;;1.83;0.80;;;24.40;99.90;;;;;;21046703;28;20288;-71
2023/09/13 01:26:56;;;;;;;1.02;0.70;;;24.20;99.90;;;;;;21030034;28;20213;-71
2023/09/13 01:36:58;;;;;;;0.98;0.68;;;;;;;;;;21052400;28;20609;-71
2023/09/13 01:47:03;;;;;;;2.20;1.05;;;24.30;99.90;;;;;;21031153;28;20736;-71
2023/09/13 01:57:05;;;;;;;1.40;0.85;;;;;;;;;;21034867;28;20231;-71
2023/09/13 02:07:06;;;;;;;2.20;1.13;;;;;;;;;;21053071;28;20275;-71
2023/09/13 02:17:09;;;;;;;1.77;0.98;;;24.00;99.90;;;;;;21016956;28;20255;-71
2023/09/13 02:27:12;;;;;;;1.80;1.08;;;;;;;;;;21037029;28;20230;-71
2023/09/13 02:37:14;;;;;;;1.77;1.00;;;;;;;;;;21014918;28;20275;-71
2023/09/13 02:47:16;;;;;;;1.13;0.90;;;;;;;;;;21021411;28;20215;-71
2023/09/13 02:57:18;;;;;;;1.25;1.00;;;;;;;;;;21019505;28;20264;-71
2023/09/13 03:07:20;;;;;;;0.77;0.68;;;23.20;99.90;;;;;;21072793;28;20214;-71
2023/09/13 03:17:22;;;;;;;1.40;0.80;;;;;;;;;;21041870;28;20769;-71
2023/09/13 03:27:24;;;;;;;0.80;0.70;;;;;;;;;;21035101;28;20230;-72
2023/09/13 03:37:27;;;;;;;1.05;0.80;;;;;;;;;;21078674;22;20229;-71
2023/09/13 03:47:29;;;;;;;1.80;0.68;;;;;;;;;;21096951;28;20594;-72
2023/09/13 03:57:31;;;;;;;2.80;0.88;;;;;;;;;;21128720;28;20611;-71
2023/09/13 04:07:33;;;;;;;2.63;0.90;;;;;;;;;;21130433;28;20216;-71
2023/09/13 04:17:34;;;;;;;1.38;0.85;;;;;;;;;;21113136;27;20251;-71
2023/09/13 04:27:37;;;;;;;1.20;0.80;;;;;;;;;;21144999;28;20699;-71
2023/09/13 04:37:38;;;;;;;2.58;1.10;;;;;;;;;;21124107;28;20222;-71
2023/09/13 04:47:41;;;;;;;1.50;1.00;;;;;;;;;;21137951;28;20275;-71
2023/09/13 04:57:43;;;;;;;1.48;1.10;;;;;;;;;;21118248;27;20225;-71
2023/09/13 05:07:44;;;;;;;3.72;1.30;;;;;;;;;;21165135;27;20263;-71
2023/09/13 05:17:46;;;;;;;1.60;1.10;;;;;;;;;;21127681;28;20217;-72
2023/09/13 05:27:48;;;;;;;1.90;1.05;;;;;;;;;;21134603;28;20236;-71
2023/09/13 05:37:50;;;;;;;2.05;1.10;;;;;;;;;;21151865;28;20598;-72
2023/09/13 05:47:52;;;;;;;2.40;1.50;;;;;;;;;;21116457;28;20256;-71
2023/09/13 05:57:54;;;;;;;1.70;1.20;;;;;;;;;;21155649;28;20377;-71
2023/09/13 06:07:55;;;;;;;1.70;1.20;;;;;;;;;;21119550;28;20697;-71
2023/09/13 06:17:57;;;;;;;2.10;0.93;;;;;;;;;;21139846;28;20224;-71
2023/09/13 06:27:59;;;;;;;2.95;1.30;;;;;;;;;;21182361;27;20269;-71
2023/09/13 06:38:00;;;;;;;3.80;1.00;;;;;;;;;;21115758;27;20219;-71
2023/09/13 06:48:02;;;;;;;1.30;1.00;;;;;;;;;;21178838;27;20238;-71
2023/09/13 06:58:06;;;;;;;1.50;1.10;;;23.20;99.90;;;;;;21152302;28;20230;-71
2023/09/13 07:08:09;;;;;;;2.28;1.10;;;;;;;;;;21127368;27;20521;-72
2023/09/13 07:18:10;;;;;;;1.30;0.93;;;;;;;;;;21148672;27;20300;-72
2023/09/13 07:28:12;;;;;;;1.80;1.02;;;;;;;;;;21148753;28;20261;-72
2023/09/13 07:38:14;;;;;;;1.25;1.00;;;;;;;;;;21131348;28;20269;-72
2023/09/13 07:48:16;;;;;;;1.75;1.20;;;;;;;;;;21143480;28;20264;-72
2023/09/13 07:58:17;;;;;;;2.03;1.15;;;;;;;;;;21148671;28;20247;-72
2023/09/13 08:08:25;;;;;;;1.52;1.02;;;;;;;;;;21147090;28;20218;-72
2023/09/13 08:18:27;;;;;;;2.30;1.05;;;;;;;;;;21158740;28;20275;-72
2023/09/13 08:28:29;;;;;;;2.08;1.30;;;;;;;;;;21144470;28;20227;-72
2023/09/13 08:38:31;;;;;;;1.58;1.00;;;;;;;;;;21161895;28;20294;-72
2023/09/13 08:48:34;;;;;;;1.42;0.95;;;;;;;;;;21159884;28;20226;-72
2023/09/13 08:58:36;;;;;;;2.00;1.10;;;;;;;;;;21160793;28;20241;-72
2023/09/13 09:08:39;;;;;;;2.58;1.00;;;;;;;;;;21141813;28;20698;-73
2023/09/13 09:18:42;;;;;;;2.22;1.10;;;;;;;;;;21140109;28;20695;-73
2023/09/13 09:28:44;;;;;;;1.67;0.90;;;;;;;;;;21139476;28;20263;-73
2023/09/13 09:38:45;;;;;;;1.75;1.13;;;;;;;;;;21151211;22;20554;-67
2023/09/13 09:48:47;;;;;;;1.05;0.85;;;;;;;;;;21038011;28;20212;-67
2023/09/13 09:58:49;;;;;;;1.20;0.85;;;;;;;;;;21024394;28;20281;-67
2023/09/13 10:08:52;;;;;;;1.75;0.80;;;;;;;;;;21056137;28;20276;-67
2023/09/13 10:18:54;;;;;;;1.42;0.98;;;;;;;;;;21036226;28;20211;-67
2023/09/13 10:29:17;;;;;;;3.58;1.15;;;24.40;99.90;;;;;;21025175;28;20263;-68
2023/09/13 10:39:27;;;;;;;1.45;1.02;;;;;;;;;;21053024;28;20289;-67
2023/09/13 10:49:29;;;;;;;1.48;1.00;;;;;;;;;;21026910;28;20216;-68
2023/09/13 10:59:32;;;;;;;1.23;0.85;;;;;;;;;;21005077;28;20235;-67
2023/09/13 11:09:34;;;;;;;1.52;0.93;;;;;;;;;;21026691;28;20222;-67
2023/09/13 11:19:36;;;;;;;1.15;0.98;;;;;;;;;;21055788;28;20227;-67
2023/09/13 11:29:51;;;;;;;4.80;1.30;;;;;;;;;;21033254;28;20276;-67
2023/09/13 11:39:53;;;;;;;3.47;1.48;;;;;;;;;;21034515;28;20225;-68
2023/09/13 11:49:56;;;;;;;2.47;1.40;;;;;;;;;;21033171;28;20218;-67
2023/09/13 12:00:04;;;;;;;2.45;1.30;;;24.20;99.90;;;;;;21033025;28;20238;-67
2023/09/13 12:10:13;;;;;;;2.03;1.23;;;;;;;;;;21041716;28;20205;-67
2023/09/13 12:20:15;;;;;;;4.15;1.23;;;;;;;;;;21013778;28;20251;-67
2023/09/13 12:30:17;;;;;;;1.83;1.05;;;;;;;;;;21010030;28;20288;-67
2023/09/13 12:40:19;;;;;;;2.08;1.40;;;;;;;;;;21045399;28;20234;-67
2023/09/13 12:50:22;;;;;;;3.38;1.50;;;;;;;;;;21059766;28;20220;-67
2023/09/13 13:00:24;;;;;;;1.48;1.23;;;;;;;;;;21043369;28;20304;-67
2023/09/13 13:10:26;;;;;;;3.15;1.30;;;;;;;;;;21042504;28;20216;-67
2023/09/13 13:20:28;;;;;;;5.13;2.80;;;;;;;;;;21038882;28;20227;-67
2023/09/13 13:30:30;;;;;;;5.57;1.20;;;;;;;;;;21040335;28;20279;-67
2023/09/13 13:40:32;;;;;;;2.10;1.63;;;;;;;;;;21039689;28;20827;-67
2023/09/13 13:50:34;;;;;;;5.25;1.90;;;;;;;;;;21054374;28;20203;-67
2023/09/13 14:00:36;;;;;;;1.98;1.35;;;;;;;;;;21035262;28;20600;-67
2023/09/13 14:10:41;;;;;;;1.50;1.10;;;;;;;;;;21035613;28;20274;-67
2023/09/13 14:20:44;;;;;;;1.45;1.00;;;;;;;;;;21012091;28;20213;-67
2023/09/13 14:30:48;;;;;;;1.77;1.00;;;;;;;;;;21035444;28;20627;-67
2023/09/13 14:40:50;;;;;;;1.70;1.00;;;;;;;;;;21045407;28;20633;-67
2023/09/13 14:50:52;;;;;;;1.25;1.00;;;;;;;;;;21013924;28;20228;-67
2023/09/13 15:00:54;;;;;;;1.65;1.13;;;;;;;;;;21034551;28;20260;-67
2023/09/13 15:10:56;;;;;;;2.53;1.30;;;;;;;;;;21003590;28;20219;-67
2023/09/13 15:20:58;;;;;;;1.77;1.10;;;;;;;;;;20990921;28;20769;-67
2023/09/13 15:30:59;;;;;;;1.20;0.80;;;;;;;;;;21050928;28;20269;-67
2023/09/13 15:41:02;;;;;;;1.25;0.80;;;;;;;;;;21082555;22;20671;-68
2023/09/13 15:51:04;;;;;;;1.70;0.70;;;;;;;;;;21050492;28;20214;-69
2023/09/13 16:01:05;;;;;;;1.05;0.60;;;;;;;;;;21032986;28;20585;-68
2023/09/13 16:11:07;;;;;;;0.98;0.60;;;;;;;;;;21022335;28;20224;-68
2023/09/13 16:21:09;;;;;;;1.10;0.50;;;;;;;;;;21044453;28;20651;-69
2023/09/13 16:31:11;;;;;;;0.88;0.50;;;;;;;;;;21035877;28;20738;-69
2023/09/13 16:41:13;;;;;;;1.30;0.80;;;;;;;;;;21045564;28;20677;-69
2023/09/13 16:51:14;;;;;;;1.35;0.70;;;;;;;;;;21055583;28;20399;-69
2023/09/13 17:01:16;;;;;;;0.75;0.47;;;;;;;;;;21010025;28;20293;-69
2023/09/13 17:11:18;;;;;;;1.10;0.50;;;;;;;;;;21045916;28;20628;-69
2023/09/13 17:21:20;;;;;;;0.70;0.47;;;;;;;;;;21050812;28;20230;-69
2023/09/13 17:31:22;;;;;;;0.50;0.40;;;;;;;;;;21037161;28;20213;-69
2023/09/13 17:41:24;;;;;;;0.85;0.60;;;;;;;;;;21052960;28;20219;-69
2023/09/13 18:01:45;;;;;;;1.10;0.50;;;;;;;;;;21042485;28;20281;-67
2023/09/13 18:11:51;;;;;;;0.73;0.50;;;;;;;;;;20804906;22;20295;-65
2023/09/13 18:21:53;;;;;;;0.68;0.50;;;;;;;;;;20702064;28;20231;-65
2023/09/13 18:31:57;;;;;;;1.30;0.82;;;;;;;;;;20733785;28;20226;-65
2023/09/13 18:41:59;;;;;;;0.70;0.40;;;;;;;;;;20700356;28;20239;-65
2023/09/13 18:52:01;;;;;;;0.93;0.57;;;;;;;;;;20700164;28;20226;-65
2023/09/13 19:02:02;;;;;;;1.27;0.70;;;;;;;;;;20715791;28;20241;-65
2023/09/13 19:12:04;;;;;;;1.25;0.68;;;;;;;;;;20692185;28;20234;-66
2023/09/13 19:22:06;;;;;;;0.80;0.60;;;;;;;;;;20687002;28;20226;-65
2023/09/13 19:32:09;;;;;;;1.60;0.90;;;;;;;;;;20708934;28;20288;-66
2023/09/13 19:42:11;;;;;;;1.05;0.70;;;;;;;;;;20700751;28;20285;-66
2023/09/13 19:52:16;;;;;;;1.20;0.90;;;;;;;;;;20708602;28;20320;-66
2023/09/13 20:02:19;;;;;;;1.20;1.00;;;;;;;;;;20691461;28;20210;-66
2023/09/13 20:12:21;;;;;;;1.10;0.90;;;;;;;;;;20710315;28;20241;-66
2023/09/13 20:22:24;;;;;;;1.48;1.00;;;;;;;;;;20719620;28;20245;-66
2023/09/13 20:32:26;;;;;;;2.10;1.15;;;;;;;;;;20706280;28;20262;-66
2023/09/13 20:42:28;;;;;;;1.83;1.33;;;;;;;;;;20725331;28;20269;-66
2023/09/13 20:52:31;;;;;;;1.83;1.42;;;;;;;;;;20710011;28;20211;-67
2023/09/13 21:02:33;;;;;;;2.75;1.40;;;;;;;;;;20693334;28;20213;-67
2023/09/13 21:12:36;;;;;;;1.77;1.17;;;;;;;;;;20731054;28;20626;-67
2023/09/13 21:22:37;;;;;;;1.70;1.27;;;;;;;;;;20705874;28;20298;-66
2023/09/13 21:32:39;;;;;;;1.88;1.30;;;;;;;;;;20674735;28;20971;-67
2023/09/13 21:42:41;;;;;;;1.30;1.02;;;;;;;;;;20736590;28;20219;-67
2023/09/13 21:52:43;;;;;;;2.40;1.10;;;;;;;;;;20712398;28;20283;-67
2023/09/13 22:02:45;;;;;;;1.40;1.00;;;;;;;;;;20736468;28;20286;-67
2023/09/13 22:12:55;;;;;;;1.27;0.90;;;22.20;99.90;;;;;;20710869;28;20321;-67
2023/09/13 22:22:57;;;;;;;1.40;1.15;;;;;;;;;;20727382;28;20871;-66
2023/09/13 22:32:59;;;;;;;1.30;1.00;;;;;;;;;;20709206;28;20235;-66
2023/09/13 22:43:01;;;;;;;1.20;0.60;;;;;;;;;;20705226;28;20746;-67
2023/09/13 22:53:03;;;;;;;0.75;0.60;;;21.80;99.90;;;;;;20714776;28;20223;-66
2023/09/13 23:03:05;;;;;;;0.70;0.50;;;;;;;;;;20696783;28;20219;-66
2023/09/13 23:13:07;;;;;;;0.95;0.40;;;;;;;;;;20700522;28;20308;-66
2023/09/13 23:23:09;;;;;;;1.42;0.40;;;;;;;;;;20704592;28;20226;-66
2023/09/13 23:33:12;;;;;;;0.30;0.30;;;;;;;;;;20705690;28;20234;-66
2023/09/13 23:43:14;;;;;;;1.95;0.43;;;;;;;;;;20705350;28;20607;-66
2023/09/13 23:53:17;;;;;;;0.50;0.45;;;;;;;;;;20720182;28;20236;-66
